Time;durP1;ratioP1;P1;durP2;ratioP2;P2;SDS_P1;SDS_P2;PMS_P1;PMS_P2;Temp;Humidity;BMP_temperature;BMP_pressure;BME280_temperature;BME280_humidity;BME280_pressure;Samples;Min_cycle;Max_cycle;Signal;HPM_P1;HPM_P2
2021/06/16 00:00:07;;;;;;;;;;;24.20;62.00;24.30;99453.00;;;;345387;28;96657;-89
2021/06/16 00:00:19;;;;;;;;;;;24.20;61.60;24.30;99451.00;;;;348975;27;83507;-89
2021/06/16 00:00:31;;;;;;;;;;;24.20;61.80;24.20;99449.00;;;;345546;28;92657;-89
2021/06/16 00:00:45;;;;;;;;;;;24.20;62.40;24.20;99444.00;;;;349122;27;83198;-89
2021/06/16 00:00:57;;;;;;;;;;;24.20;62.20;24.20;99441.00;;;;348135;27;96567;-89
2021/06/16 00:01:09;;;;;;;;;;;24.20;62.20;24.20;99451.00;;;;347441;28;83290;-89
2021/06/16 00:01:20;;;;;;;;;;;24.20;62.40;24.20;99455.00;;;;345318;28;94726;-89
2021/06/16 00:01:33;;;;;;;;;;;24.20;62.70;24.20;99452.00;;;;347087;28;82514;-88
2021/06/16 00:01:45;;;;;;;;;;;24.20;63.00;24.10;99450.00;;;;347397;27;96415;-89
2021/06/16 00:01:56;;;;;;;;;;;24.20;62.80;24.20;99454.00;;;;346190;28;83542;-88
2021/06/16 00:02:08;;;;;;;;;;;24.20;62.50;24.20;99454.00;;;;346672;28;96809;-89
2021/06/16 00:02:20;;;;;;;;;;;24.20;62.20;24.20;99448.00;;;;347554;28;82568;-89
2021/06/16 00:02:32;;;;;;;;;;;24.10;61.90;24.20;99450.00;;;;344155;28;96093;-89
2021/06/16 00:02:44;;;;;;;;;;;24.20;62.10;24.30;99455.00;;;;348950;27;83481;-89
2021/06/16 00:02:55;;;;;;;;;;;24.20;62.20;24.20;99447.00;;;;348118;27;97150;-88
2021/06/16 00:03:07;;;;;;;;;;;24.20;62.40;24.30;99447.00;;;;346315;28;82473;-89
2021/06/16 00:03:19;;;;;;;;;;;24.20;62.20;24.40;99450.00;;;;342713;28;95734;-89
2021/06/16 00:03:31;;;;;;;;;;;24.20;62.20;24.40;99442.00;;;;346132;28;83541;-89
2021/06/16 00:03:42;;;;;;;;;;;24.20;62.40;24.40;99444.00;;;;347997;27;95660;-89
2021/06/16 00:03:54;;;;;;;;;;;24.20;62.40;24.30;99450.00;;;;347649;28;83377;-89
2021/06/16 00:04:06;;;;;;;;;;;24.20;62.40;24.40;99444.00;;;;346721;28;96288;-88
2021/06/16 00:04:18;;;;;;;;;;;24.20;62.80;24.40;99446.00;;;;347531;28;83471;-88
2021/06/16 00:04:30;;;;;;;;;;;24.20;62.20;24.40;99450.00;;;;346865;28;94164;-88
2021/06/16 00:04:41;;;;;;;;;;;24.20;62.30;24.50;99446.00;;;;347253;28;82659;-89
2021/06/16 00:04:53;;;;;;;;;;;24.20;62.40;24.50;99446.00;;;;344721;28;96444;-89
2021/06/16 00:05:06;;;;;;;;;;;24.20;62.30;24.40;99444.00;;;;347124;28;83442;-88
2021/06/16 00:05:27;;;;;;;;;;;24.20;62.30;24.50;99450.00;;;;345447;28;95974;-89
2021/06/16 00:05:38;;;;;;;;;;;24.20;62.20;24.40;99450.00;;;;345354;28;83558;-88
2021/06/16 00:05:50;;;;;;;;;;;24.20;62.20;24.50;99449.00;;;;345511;28;94156;-88
2021/06/16 00:06:02;;;;;;;;;;;24.20;62.20;24.50;99446.00;;;;344691;28;83476;-89
2021/06/16 00:06:14;;;;;;;;;;;24.20;62.20;24.40;99443.00;;;;346805;28;94837;-88
2021/06/16 00:06:26;;;;;;;;;;;24.20;62.20;24.50;99442.00;;;;344820;28;83483;-88
2021/06/16 00:06:38;;;;;;;;;;;24.30;62.20;24.40;99448.00;;;;344027;28;96850;-89
2021/06/16 00:06:51;;;;;;;;;;;24.20;62.00;24.40;99439.00;;;;344835;28;83237;-89
2021/06/16 00:07:03;;;;;;;;;;;24.30;62.20;24.30;99446.00;;;;346741;28;97414;-89
2021/06/16 00:07:15;;;;;;;;;;;24.30;62.20;24.30;99447.00;;;;344921;28;82479;-88
2021/06/16 00:07:27;;;;;;;;;;;24.20;62.30;24.40;99448.00;;;;346701;28;94503;-88
2021/06/16 00:07:39;;;;;;;;;;;24.30;62.20;24.40;99446.00;;;;348059;27;82474;-89
2021/06/16 00:07:51;;;;;;;;;;;24.30;62.00;24.30;99444.00;;;;346822;28;97189;-89
2021/06/16 00:08:03;;;;;;;;;;;24.20;61.90;24.30;99447.00;;;;347562;28;82562;-88
2021/06/16 00:08:15;;;;;;;;;;;24.20;62.10;24.30;99445.00;;;;345331;28;97405;-88
2021/06/16 00:08:27;;;;;;;;;;;24.20;61.80;24.30;99446.00;;;;347720;28;83385;-88
2021/06/16 00:08:39;;;;;;;;;;;24.30;61.70;24.30;99451.00;;;;348195;27;96403;-89
2021/06/16 00:08:50;;;;;;;;;;;24.20;62.20;24.30;99447.00;;;;346311;28;83339;-88
2021/06/16 00:09:03;;;;;;;;;;;24.20;62.10;24.10;99448.00;;;;345388;28;97630;-89
2021/06/16 00:09:15;;;;;;;;;;;24.20;62.20;24.10;99444.00;;;;347666;28;82513;-89
2021/06/16 00:09:31;;;;;;;;;;;24.20;62.20;24.10;99440.00;;;;348105;27;95575;-89
2021/06/16 00:09:43;;;;;;;;;;;24.20;62.40;24.10;99442.00;;;;348720;27;83478;-88
2021/06/16 00:09:55;;;;;;;;;;;24.20;62.30;24.00;99449.00;;;;344040;28;96724;-88
2021/06/16 00:10:08;;;;;;;;;;;24.20;62.40;24.00;99444.00;;;;344735;28;83589;-88
2021/06/16 00:10:23;;;;;;;;;;;24.20;62.40;23.90;99445.00;;;;345301;28;96678;-89
2021/06/16 00:10:35;;;;;;;;;;;24.10;62.50;23.90;99452.00;;;;346395;28;83412;-89
2021/06/16 00:10:46;;;;;;;;;;;24.10;62.50;24.00;99445.00;;;;345065;28;97173;-89
2021/06/16 00:10:58;;;;;;;;;;;24.10;62.50;24.00;99445.00;;;;349003;27;83770;-88
2021/06/16 00:11:10;;;;;;;1.67;0.75;;;24.10;62.60;23.90;99446.00;;;;346087;28;95434;-88
2021/06/16 00:11:22;;;;;;;3.83;1.10;;;24.10;62.60;23.90;99451.00;;;;345625;28;83446;-87
2021/06/16 00:11:34;;;;;;;3.13;1.08;;;24.10;62.60;23.90;99442.00;;;;346507;28;96278;-89
2021/06/16 00:11:46;;;;;;;3.45;1.20;;;24.00;62.60;23.90;99448.00;;;;344455;28;84631;-88
2021/06/16 00:11:58;;;;;;;3.88;1.10;;;24.00;62.60;23.90;99447.00;;;;343819;28;94180;-88
2021/06/16 00:12:10;;;;;;;3.63;0.95;;;24.00;62.70;23.90;99447.00;;;;345800;28;83443;-88
2021/06/16 00:12:24;;;;;;;3.63;0.93;;;24.00;62.60;23.90;99450.00;;;;342370;28;97379;-88
2021/06/16 00:12:37;;;;;;;6.38;1.13;;;24.00;62.50;23.80;99446.00;;;;347237;28;85002;-88
2021/06/16 00:12:49;;;;;;;6.07;1.13;;;24.00;62.70;23.80;99446.00;;;;343651;28;97891;-88
2021/06/16 00:13:02;;;;;;;5.25;1.10;;;24.00;62.60;23.80;99452.00;;;;348601;27;84925;-88
2021/06/16 00:13:14;;;;;;;4.32;1.08;;;23.90;62.80;23.70;99447.00;;;;346543;28;96309;-88
2021/06/16 00:13:26;;;;;;;5.15;1.15;;;24.00;62.80;23.80;99452.00;;;;344407;28;84363;-88
2021/06/16 00:13:38;;;;;;;4.30;1.02;;;23.90;62.80;23.80;99450.00;;;;344707;28;96710;-89
2021/06/16 00:13:50;;;;;;;2.25;0.88;;;23.90;62.80;24.00;99444.00;;;;343053;28;83598;-88
2021/06/16 00:14:03;;;;;;;2.90;0.93;;;24.00;62.60;24.10;99443.00;;;;349271;27;97469;-88
2021/06/16 00:14:19;;;;;;;2.92;1.00;;;24.00;62.70;24.10;99436.00;;;;345919;28;83530;-89
2021/06/16 00:14:31;;;;;;;2.47;1.13;;;24.00;62.50;24.10;99443.00;;;;343452;28;95053;-89
2021/06/16 00:14:43;;;;;;;2.45;0.98;;;24.00;62.40;24.20;99436.00;;;;345749;28;84179;-88
2021/06/16 00:14:55;;;;;;;2.15;1.00;;;24.00;62.50;24.20;99445.00;;;;347667;27;96602;-89
2021/06/16 00:15:35;;;;;;;2.35;1.00;;;24.00;62.60;24.10;99446.00;;;;345834;28;83557;-89
2021/06/16 00:15:48;;;;;;;2.42;0.98;;;24.10;62.50;24.10;99445.00;;;;346554;28;94088;-88
2021/06/16 00:15:59;;;;;;;2.13;1.10;;;24.10;62.60;24.10;99444.00;;;;344505;28;85150;-88
2021/06/16 00:16:11;;;;;;;2.22;1.27;;;24.00;62.70;24.10;99449.00;;;;345023;28;96700;-88
2021/06/16 00:16:24;;;;;;;1.83;0.90;;;24.00;62.40;24.10;99429.00;;;;344455;28;84505;-89
2021/06/16 00:16:36;;;;;;;2.05;0.80;;;24.10;62.90;24.10;99437.00;;;;347407;27;97549;-88
2021/06/16 00:16:48;;;;;;;2.20;1.00;;;24.10;62.70;24.10;99442.00;;;;345630;28;83649;-88
2021/06/16 00:16:59;;;;;;;2.20;0.90;;;24.10;62.60;24.10;99437.00;;;;347868;27;95267;-88
2021/06/16 00:17:11;;;;;;;2.63;0.85;;;24.10;62.50;24.10;99436.00;;;;350072;27;82428;-88
2021/06/16 00:17:23;;;;;;;2.88;0.93;;;24.10;62.70;24.20;99433.00;;;;345184;28;96976;-89
2021/06/16 00:17:35;;;;;;;1.73;0.90;;;24.10;62.50;24.20;99441.00;;;;345728;28;83500;-88
2021/06/16 00:17:47;;;;;;;1.55;0.82;;;24.10;62.60;24.10;99440.00;;;;343569;28;96575;-89
2021/06/16 00:17:59;;;;;;;2.10;0.80;;;24.10;62.60;24.10;99438.00;;;;344427;28;83485;-88
2021/06/16 00:18:11;;;;;;;2.40;0.82;;;24.10;62.80;24.10;99435.00;;;;345092;28;93705;-88
2021/06/16 00:18:23;;;;;;;2.80;1.10;;;24.10;62.80;24.20;99439.00;;;;345930;28;83421;-89
2021/06/16 00:18:35;;;;;;;3.10;1.17;;;24.20;62.90;24.30;99435.00;;;;346583;28;96755;-88
2021/06/16 00:18:47;;;;;;;4.53;1.05;;;24.20;62.90;24.40;99435.00;;;;348608;27;83433;-88
2021/06/16 00:18:59;;;;;;;5.22;1.10;;;24.20;62.80;24.40;99433.00;;;;345112;28;97602;-88
2021/06/16 00:19:11;;;;;;;4.85;1.10;;;24.20;62.70;24.40;99435.00;;;;347133;28;85018;-89
2021/06/16 00:19:23;;;;;;;2.70;1.00;;;24.20;62.50;24.50;99435.00;;;;345068;28;97035;-89
2021/06/16 00:19:35;;;;;;;2.45;0.93;;;24.20;62.60;24.50;99432.00;;;;344453;28;84523;-88
2021/06/16 00:19:47;;;;;;;2.75;1.10;;;24.30;62.60;24.30;99437.00;;;;342289;28;94153;-88
2021/06/16 00:19:59;;;;;;;2.22;1.08;;;24.30;62.80;24.30;99437.00;;;;347251;28;85008;-89
2021/06/16 00:20:11;;;;;;;2.08;1.00;;;24.30;62.80;24.30;99440.00;;;;343680;28;93576;-88
2021/06/16 00:20:24;;;;;;;2.13;0.90;;;24.30;62.60;24.30;99431.00;;;;343069;28;84817;-89
2021/06/16 00:20:37;;;;;;;2.45;0.80;;;24.30;63.00;24.30;99431.00;;;;343759;28;94149;-88
2021/06/16 00:20:49;;;;;;;3.13;0.90;;;24.30;62.70;24.40;99433.00;;;;345693;28;84755;-88
2021/06/16 00:21:01;;;;;;;3.25;1.00;;;24.40;62.60;24.50;99435.00;;;;343473;28;96866;-89
2021/06/16 00:21:14;;;;;;;2.88;0.88;;;24.40;62.60;24.40;99435.00;;;;345815;28;85028;-88
2021/06/16 00:21:26;;;;;;;2.95;0.75;;;24.40;62.50;24.30;99435.00;;;;343658;28;97200;-88
2021/06/16 00:21:37;;;;;;;3.55;0.80;;;24.40;62.80;24.40;99422.00;;;;344362;28;83506;-89
2021/06/16 00:21:49;;;;;;;3.55;1.45;;;24.40;62.50;24.40;99432.00;;;;345172;28;95649;-88
2021/06/16 00:22:01;;;;;;;3.50;1.50;;;24.40;62.60;24.40;99426.00;;;;346892;28;83407;-89
2021/06/16 00:22:13;;;;;;;4.22;1.00;;;24.40;63.20;24.50;99428.00;;;;344996;28;97370;-88
2021/06/16 00:22:25;;;;;;;3.50;0.88;;;24.40;62.60;24.50;99425.00;;;;345712;28;83726;-88
2021/06/16 00:22:37;;;;;;;2.35;0.80;;;24.40;62.50;24.60;99431.00;;;;343358;28;96739;-88
2021/06/16 00:22:49;;;;;;;1.85;0.95;;;24.50;62.60;24.60;99434.00;;;;347197;28;82748;-88
2021/06/16 00:23:01;;;;;;;2.83;1.20;;;24.50;62.60;24.60;99429.00;;;;343793;28;97639;-88
2021/06/16 00:23:13;;;;;;;3.75;1.35;;;24.50;62.60;24.50;99424.00;;;;345907;28;84807;-89
2021/06/16 00:23:25;;;;;;;3.90;1.20;;;24.50;62.70;24.50;99422.00;;;;345179;28;96852;-89
2021/06/16 00:23:36;;;;;;;;;;;24.50;62.80;24.50;99423.00;;;;346399;28;83654;-89
2021/06/16 00:23:48;;;;;;;;;;;24.50;62.50;24.50;99425.00;;;;345546;28;95511;-88
2021/06/16 00:24:00;;;;;;;;;;;24.50;62.40;24.50;99431.00;;;;344655;28;83446;-89
2021/06/16 00:24:14;;;;;;;;;;;24.50;62.40;24.60;99429.00;;;;346851;28;93598;-88
2021/06/16 00:24:26;;;;;;;;;;;24.50;62.40;24.60;99420.00;;;;346254;28;82607;-88
2021/06/16 00:24:37;;;;;;;;;;;24.50;62.50;24.40;99425.00;;;;345500;28;93818;-88
2021/06/16 00:24:49;;;;;;;;;;;24.50;62.60;24.50;99430.00;;;;344777;28;83578;-89
2021/06/16 00:25:01;;;;;;;;;;;24.50;62.50;24.40;99429.00;;;;345483;28;95613;-88
2021/06/16 00:25:14;;;;;;;;;;;24.50;62.50;24.40;99425.00;;;;347774;28;82382;-88
2021/06/16 00:25:26;;;;;;;;;;;24.60;62.60;24.30;99427.00;;;;344158;28;96587;-89
2021/06/16 00:25:37;;;;;;;;;;;24.50;62.70;24.40;99427.00;;;;345850;28;83787;-88
2021/06/16 00:25:49;;;;;;;;;;;24.60;62.70;24.40;99420.00;;;;345775;28;97179;-89
2021/06/16 00:26:01;;;;;;;;;;;24.60;62.60;24.60;99421.00;;;;343542;28;82479;-89
2021/06/16 00:26:13;;;;;;;;;;;24.60;62.40;24.60;99424.00;;;;344104;28;95890;-89
2021/06/16 00:26:25;;;;;;;;;;;24.60;62.40;24.60;99419.00;;;;344842;28;83440;-89
2021/06/16 00:26:37;;;;;;;;;;;24.50;62.60;24.50;99420.00;;;;345384;28;97018;-89
2021/06/16 00:26:49;;;;;;;;;;;24.50;62.70;24.50;99417.00;;;;347627;28;82474;-89
2021/06/16 00:27:01;;;;;;;;;;;24.60;62.90;24.40;99423.00;;;;343968;28;95001;-89
2021/06/16 00:27:12;;;;;;;;;;;24.50;62.80;24.50;99423.00;;;;346325;28;83320;-88
2021/06/16 00:27:24;;;;;;;;;;;24.60;62.80;24.40;99419.00;;;;345414;28;95527;-89
2021/06/16 00:27:36;;;;;;;;;;;24.50;62.50;24.50;99427.00;;;;347765;28;82493;-88
2021/06/16 00:27:48;;;;;;;;;;;24.60;62.60;24.50;99427.00;;;;348191;27;96944;-88
2021/06/16 00:28:00;;;;;;;;;;;24.50;62.40;24.50;99425.00;;;;348940;27;83458;-89
2021/06/16 00:28:11;;;;;;;;;;;24.60;62.80;24.50;99425.00;;;;347030;28;91917;-89
2021/06/16 00:28:23;;;;;;;;;;;24.60;62.70;24.40;99418.00;;;;348889;27;83509;-89
2021/06/16 00:28:36;;;;;;;;;;;24.50;62.90;24.40;99428.00;;;;346711;28;96538;-88
2021/06/16 00:28:47;;;;;;;;;;;24.60;62.80;24.30;99419.00;;;;345986;28;83552;-89
2021/06/16 00:28:59;;;;;;;;;;;24.50;62.70;24.30;99422.00;;;;343939;28;94256;-88
2021/06/16 00:29:11;;;;;;;;;;;24.50;62.70;24.20;99424.00;;;;344879;28;82591;-89
2021/06/16 00:29:23;;;;;;;;;;;24.50;62.70;24.40;99421.00;;;;345455;28;96624;-89
2021/06/16 00:29:34;;;;;;;;;;;24.50;62.40;24.30;99427.00;;;;344780;28;83394;-89
2021/06/16 00:29:46;;;;;;;;;;;24.50;62.70;24.20;99427.00;;;;346876;28;96432;-89
2021/06/16 00:29:58;;;;;;;;;;;24.50;62.70;24.10;99421.00;;;;347581;28;82498;-89
2021/06/16 00:30:10;;;;;;;;;;;24.50;62.70;24.10;99423.00;;;;345419;28;96421;-89
2021/06/16 00:30:23;;;;;;;;;;;24.50;62.80;24.10;99418.00;;;;345950;28;83436;-88
2021/06/16 00:30:35;;;;;;;;;;;24.50;63.00;24.00;99428.00;;;;345450;28;95577;-89
2021/06/16 00:30:47;;;;;;;;;;;24.50;63.00;24.10;99425.00;;;;347583;28;83341;-88
2021/06/16 00:30:59;;;;;;;;;;;24.50;63.10;24.00;99431.00;;;;346731;28;97037;-88
2021/06/16 00:31:11;;;;;;;;;;;24.40;62.90;24.00;99423.00;;;;344762;28;82366;-88
2021/06/16 00:31:23;;;;;;;;;;;24.40;62.90;24.10;99429.00;;;;346729;28;97249;-88
2021/06/16 00:31:35;;;;;;;;;;;24.50;63.10;24.10;99425.00;;;;345779;28;83491;-88
2021/06/16 00:31:47;;;;;;;;;;;24.40;63.20;24.10;99427.00;;;;342092;28;93822;-88
2021/06/16 00:31:58;;;;;;;;;;;24.40;62.90;24.20;99430.00;;;;346169;28;82542;-88
2021/06/16 00:32:10;;;;;;;;;;;24.40;62.90;24.20;99430.00;;;;345271;28;96130;-88
2021/06/16 00:32:22;;;;;;;;;;;24.40;62.90;24.10;99425.00;;;;346291;28;82440;-89
2021/06/16 00:32:34;;;;;;;;;;;24.40;63.10;24.10;99427.00;;;;345464;28;96071;-89
2021/06/16 00:32:46;;;;;;;;;;;24.40;63.30;24.10;99438.00;;;;343467;28;82486;-89
2021/06/16 00:32:57;;;;;;;;;;;24.40;63.40;24.10;99421.00;;;;345359;28;96884;-88
2021/06/16 00:33:09;;;;;;;;;;;24.40;63.50;24.10;99431.00;;;;346233;28;83343;-89
2021/06/16 00:33:21;;;;;;;;;;;24.40;63.50;24.10;99427.00;;;;345405;28;95628;-89
2021/06/16 00:33:33;;;;;;;;;;;24.30;63.30;24.10;99430.00;;;;346217;28;82535;-88
2021/06/16 00:33:44;;;;;;;;;;;24.30;63.40;24.00;99434.00;;;;342762;28;93130;-88
2021/06/16 00:33:56;;;;;;;;;;;24.30;63.50;24.10;99430.00;;;;343469;28;82446;-89
2021/06/16 00:34:08;;;;;;;;;;;24.30;63.60;24.10;99432.00;;;;345412;28;95774;-89
2021/06/16 00:34:20;;;;;;;;;;;24.30;63.40;24.20;99430.00;;;;345841;28;83549;-89
2021/06/16 00:34:32;;;;;;;;;;;24.30;63.10;24.20;99430.00;;;;343979;28;94196;-89
2021/06/16 00:34:44;;;;;;;;;;;24.30;63.30;24.10;99423.00;;;;344565;28;82551;-89
2021/06/16 00:34:55;;;;;;;;;;;24.30;63.40;24.10;99430.00;;;;345353;28;96712;-87
2021/06/16 00:35:07;;;;;;;;;;;24.30;63.70;24.10;99423.00;;;;347518;28;83615;-88
2021/06/16 00:35:20;;;;;;;;;;;24.20;63.50;24.00;99428.00;;;;344019;28;97627;-89
2021/06/16 00:35:32;;;;;;;;;;;24.20;63.60;24.10;99429.00;;;;344759;28;82636;-88
2021/06/16 00:35:43;;;;;;;;;;;24.20;63.40;24.10;99426.00;;;;348025;27;96604;-89
2021/06/16 00:35:56;;;;;;;;;;;24.20;63.10;24.10;99432.00;;;;347569;28;83447;-89
2021/06/16 00:36:07;;;;;;;;;;;24.20;63.30;24.10;99438.00;;;;346813;28;96409;-89
2021/06/16 00:36:19;;;;;;;;;;;24.20;63.40;24.10;99424.00;;;;347524;28;83978;-89
2021/06/16 00:36:31;;;;;;;;;;;24.20;63.30;24.10;99430.00;;;;346746;28;96503;-89
2021/06/16 00:36:43;;;;;;;;;;;24.20;63.50;24.10;99431.00;;;;343504;28;83348;-89
2021/06/16 00:36:55;;;;;;;;;;;24.20;63.40;24.10;99424.00;;;;345411;28;97235;-89
2021/06/16 00:37:06;;;;;;;;;;;24.20;63.40;24.10;99430.00;;;;346279;28;83480;-89
2021/06/16 00:37:18;;;;;;;;;;;24.20;63.60;24.20;99437.00;;;;345253;28;97212;-89
2021/06/16 00:37:30;;;;;;;;;;;24.20;63.30;24.20;99431.00;;;;344574;28;82656;-89
2021/06/16 00:37:42;;;;;;;;;;;24.20;63.20;24.10;99439.00;;;;345839;28;97016;-88
2021/06/16 00:37:54;;;;;;;;;;;24.20;63.60;24.10;99434.00;;;;345994;28;83471;-89
2021/06/16 00:38:06;;;;;;;;;;;24.20;63.60;24.10;99434.00;;;;346709;28;95999;-88
2021/06/16 00:38:17;;;;;;;;;;;24.20;63.70;24.10;99431.00;;;;344736;28;83505;-88
2021/06/16 00:38:29;;;;;;;;;;;24.20;63.70;24.10;99423.00;;;;345416;28;96976;-88
2021/06/16 00:38:41;;;;;;;;;;;24.20;63.60;24.10;99436.00;;;;346560;28;83471;-89
2021/06/16 00:38:53;;;;;;;;;;;24.20;63.20;24.10;99428.00;;;;346824;28;96438;-90
2021/06/16 00:39:06;;;;;;;;;;;24.20;63.60;24.10;99426.00;;;;347760;28;83424;-88
2021/06/16 00:39:18;;;;;;;;;;;24.20;63.60;24.20;99426.00;;;;345722;28;93831;-90
2021/06/16 00:39:30;;;;;;;;;;;24.20;63.10;24.20;99434.00;;;;347669;28;83551;-89
2021/06/16 00:39:41;;;;;;;;;;;24.20;63.00;24.20;99433.00;;;;345708;28;96380;-88
2021/06/16 00:39:53;;;;;;;;;;;24.20;63.10;24.20;99433.00;;;;345356;28;83383;-89
2021/06/16 00:40:07;;;;;;;;;;;24.20;63.10;24.30;99431.00;;;;344447;28;96191;-89
2021/06/16 00:40:23;;;;;;;;;;;24.20;63.20;24.20;99436.00;;;;350622;27;83393;-88
2021/06/16 00:40:35;;;;;;;;;;;24.20;63.30;24.20;99432.00;;;;346726;28;94868;-89
2021/06/16 00:40:47;;;;;;;;;;;24.20;63.30;24.20;99433.00;;;;345003;28;82590;-88
2021/06/16 00:40:59;;;;;;;;;;;24.20;63.40;24.30;99426.00;;;;342520;28;95582;-90
2021/06/16 00:41:11;;;;;;;;;;;24.20;63.50;24.20;99431.00;;;;344719;28;83520;-89
2021/06/16 00:41:23;;;;;;;;;;;24.20;64.00;24.20;99436.00;;;;344197;28;95529;-89
2021/06/16 00:41:35;;;;;;;;;;;24.20;64.00;24.20;99427.00;;;;347548;28;83543;-88
2021/06/16 00:41:47;;;;;;;;;;;24.20;63.60;24.10;99431.00;;;;344212;28;95257;-89
2021/06/16 00:41:58;;;;;;;;;;;24.10;63.70;24.00;99427.00;;;;345116;28;83457;-89
2021/06/16 00:42:10;;;;;;;;;;;24.10;64.00;24.10;99427.00;;;;346964;28;93109;-88
2021/06/16 00:42:23;;;;;;;;;;;24.10;63.80;24.10;99427.00;;;;347697;28;83417;-89
2021/06/16 00:42:34;;;;;;;;;;;24.10;64.10;24.20;99433.00;;;;345571;28;96681;-89
2021/06/16 00:42:46;;;;;;;;;;;24.10;63.60;24.10;99426.00;;;;343767;28;82395;-88
2021/06/16 00:43:00;;;;;;;;;;;24.10;63.90;24.10;99425.00;;;;342950;28;93812;-89
2021/06/16 00:43:12;;;;;;;;;;;24.10;64.00;24.00;99434.00;;;;343393;28;83436;-89
2021/06/16 00:43:23;;;;;;;;;;;24.10;63.90;24.00;99428.00;;;;346900;28;97291;-89
2021/06/16 00:43:35;;;;;;;;;;;24.10;64.00;24.00;99431.00;;;;347344;27;82594;-89
2021/06/16 00:43:47;;;;;;;;;;;24.10;63.90;24.10;99421.00;;;;342528;28;94415;-89
2021/06/16 00:43:59;;;;;;;;;;;24.10;63.50;24.00;99428.00;;;;346394;28;83367;-88
2021/06/16 00:44:11;;;;;;;;;;;24.00;64.00;23.90;99436.00;;;;345253;28;95759;-89
2021/06/16 00:44:22;;;;;;;;;;;24.10;63.90;24.00;99429.00;;;;344995;28;82554;-89
2021/06/16 00:44:34;;;;;;;;;;;24.00;64.00;24.00;99423.00;;;;344138;28;97017;-89
2021/06/16 00:44:46;;;;;;;;;;;24.10;63.80;24.10;99432.00;;;;346356;28;83388;-89
2021/06/16 00:44:58;;;;;;;;;;;24.00;63.70;24.10;99425.00;;;;343979;28;96262;-89
2021/06/16 00:45:10;;;;;;;;;;;24.00;63.50;24.10;99422.00;;;;346394;28;82642;-89
2021/06/16 00:45:22;;;;;;;;;;;24.10;63.70;24.10;99420.00;;;;343974;28;96665;-88
2021/06/16 00:45:33;;;;;;;;;;;24.00;63.30;24.00;99430.00;;;;346317;28;82535;-89
2021/06/16 00:45:45;;;;;;;;;;;24.00;63.70;24.00;99432.00;;;;345484;28;96899;-88
2021/06/16 00:45:57;;;;;;;;;;;24.00;63.70;24.10;99420.00;;;;346048;28;83508;-89
2021/06/16 00:46:09;;;;;;;;;;;24.10;63.30;24.00;99426.00;;;;346928;28;93470;-88
2021/06/16 00:46:21;;;;;;;;;;;24.00;63.20;24.00;99418.00;;;;348992;27;83514;-89
2021/06/16 00:46:33;;;;;;;;;;;24.00;63.40;23.90;99423.00;;;;348070;27;96565;-89
2021/06/16 00:46:45;;;;;;;;;;;24.00;63.70;23.90;99425.00;;;;344875;28;82484;-89
2021/06/16 00:46:56;;;;;;;;;;;24.00;63.90;23.90;99426.00;;;;345524;28;94284;-88
2021/06/16 00:47:08;;;;;;;;;;;24.00;63.90;24.00;99421.00;;;;346976;28;83540;-89
2021/06/16 00:47:20;;;;;;;;;;;24.00;63.70;24.00;99423.00;;;;344195;28;96113;-89
2021/06/16 00:47:32;;;;;;;;;;;24.00;63.50;24.00;99425.00;;;;343412;28;83574;-88
2021/06/16 00:47:44;;;;;;;;;;;24.00;63.50;24.00;99424.00;;;;348248;27;97557;-89
2021/06/16 00:47:56;;;;;;;;;;;24.00;63.70;24.00;99426.00;;;;347873;28;82509;-88
2021/06/16 00:48:08;;;;;;;;;;;24.00;63.70;24.00;99423.00;;;;344196;28;96358;-89
2021/06/16 00:48:20;;;;;;;;;;;24.00;63.40;24.00;99425.00;;;;346362;28;83495;-89
2021/06/16 00:48:31;;;;;;;;;;;24.00;63.70;24.00;99425.00;;;;344332;28;95286;-88
2021/06/16 00:48:43;;;;;;;;;;;24.00;63.80;24.00;99424.00;;;;346370;28;83479;-88
2021/06/16 00:48:55;;;;;;;;;;;24.00;64.10;23.90;99423.00;;;;347025;28;95413;-88
2021/06/16 00:49:07;;;;;;;;;;;24.00;64.90;23.90;99420.00;;;;346305;28;82530;-89
2021/06/16 00:49:19;;;;;;;;;;;24.00;64.40;23.90;99429.00;;;;344208;28;95881;-89
2021/06/16 00:49:31;;;;;;;;;;;24.00;63.90;24.00;99419.00;;;;344981;28;82482;-89
2021/06/16 00:49:42;;;;;;;;;;;24.00;63.60;24.00;99425.00;;;;344984;28;95549;-88
2021/06/16 00:49:54;;;;;;;;;;;24.00;63.50;24.00;99426.00;;;;347650;28;83503;-89
2021/06/16 00:50:07;;;;;;;;;;;24.00;63.60;24.00;99428.00;;;;345629;28;93785;-88
2021/06/16 00:50:20;;;;;;;;;;;24.00;63.90;23.90;99424.00;;;;346557;28;83368;-88
2021/06/16 00:50:33;;;;;;;;;;;24.00;64.20;23.90;99430.00;;;;345604;28;94357;-88
2021/06/16 00:50:45;;;;;;;;;;;23.90;64.30;23.90;99420.00;;;;343509;28;83524;-89
2021/06/16 00:50:57;;;;;;;;;;;23.90;64.50;23.90;99429.00;;;;342617;28;95554;-89
2021/06/16 00:51:09;;;;;;;;;;;23.90;64.00;24.00;99427.00;;;;345037;28;83275;-89
2021/06/16 00:51:20;;;;;;;;;;;23.90;63.80;23.90;99427.00;;;;345422;28;95360;-88
2021/06/16 00:51:32;;;;;;;;;;;24.00;64.10;23.90;99430.00;;;;347440;28;83481;-89
2021/06/16 00:51:44;;;;;;;;;;;23.90;64.10;23.90;99425.00;;;;344041;28;95779;-89
2021/06/16 00:51:56;;;;;;;;;;;23.90;64.00;23.90;99427.00;;;;346003;28;83346;-89
2021/06/16 00:52:07;;;;;;;;;;;23.90;63.60;23.90;99420.00;;;;344130;28;93576;-89
2021/06/16 00:52:19;;;;;;;;;;;23.90;63.80;23.90;99426.00;;;;344795;28;83418;-89
2021/06/16 00:52:31;;;;;;;;;;;23.90;63.80;23.90;99418.00;;;;345400;28;95403;-89
2021/06/16 00:52:43;;;;;;;;;;;23.90;63.70;24.00;99417.00;;;;345992;28;83532;-89
2021/06/16 00:52:54;;;;;;;;;;;23.90;63.50;24.00;99422.00;;;;345431;28;96718;-89
2021/06/16 00:53:06;;;;;;;;;;;23.90;63.50;23.90;99419.00;;;;346073;28;83531;-89
2021/06/16 00:53:18;;;;;;;;;;;23.90;63.90;24.00;99422.00;;;;343939;28;96525;-89
2021/06/16 00:53:30;;;;;;;;;;;23.90;63.60;24.00;99419.00;;;;344781;28;83438;-88
2021/06/16 00:53:42;;;;;;;;;;;23.90;63.70;23.90;99421.00;;;;345445;28;96537;-89
2021/06/16 00:53:54;;;;;;;;;;;23.90;64.30;23.90;99419.00;;;;344776;28;83425;-88
2021/06/16 00:54:09;;;;;;;;;;;23.90;64.20;24.00;99420.00;;;;344153;28;92095;-88
2021/06/16 00:54:21;;;;;;;;;;;23.90;64.00;24.00;99424.00;;;;344882;28;82489;-88
2021/06/16 00:54:34;;;;;;;;;;;23.90;64.40;24.00;99419.00;;;;342524;28;97359;-89
2021/06/16 00:54:46;;;;;;;;;;;23.90;64.10;24.00;99417.00;;;;344501;28;83351;-89
2021/06/16 00:54:58;;;;;;;;;;;23.90;63.90;23.90;99412.00;;;;345441;28;92716;-89
2021/06/16 00:55:10;;;;;;;;;;;23.90;64.60;23.90;99418.00;;;;344884;28;82499;-88
2021/06/16 00:55:22;;;;;;;;;;;23.90;64.10;23.90;99415.00;;;;345441;28;93810;-88
2021/06/16 00:55:37;;;;;;;;;;;23.80;64.00;23.90;99419.00;;;;343285;28;83626;-88
2021/06/16 00:55:49;;;;;;;;;;;23.80;64.40;23.90;99418.00;;;;345615;28;96872;-89
2021/06/16 00:56:01;;;;;;;;;;;23.90;64.00;24.00;99413.00;;;;344815;28;83413;-89
2021/06/16 00:56:13;;;;;;;;;;;23.80;64.10;24.00;99417.00;;;;344001;28;95675;-88
2021/06/16 00:56:24;;;;;;;;;;;23.90;64.10;23.90;99418.00;;;;346112;28;83484;-88
2021/06/16 00:56:41;;;;;;;;;;;23.90;64.50;23.90;99424.00;;;;346863;27;96581;-88
2021/06/16 00:56:53;;;;;;;;;;;23.80;64.60;23.90;99423.00;;;;347523;28;83432;-89
2021/06/16 00:57:05;;;;;;;;;;;23.80;64.20;23.90;99423.00;;;;343976;28;97305;-88
2021/06/16 00:57:17;;;;;;;;;;;23.80;64.90;23.80;99423.00;;;;347496;28;82498;-89
2021/06/16 00:57:29;;;;;;;;;;;23.80;64.90;23.80;99423.00;;;;348088;27;96521;-88
2021/06/16 00:57:41;;;;;;;;;;;23.80;64.30;23.80;99423.00;;;;347544;28;82266;-89
2021/06/16 00:57:53;;;;;;;;;;;23.80;64.40;23.80;99425.00;;;;346712;28;94198;-88
2021/06/16 00:58:09;;;;;;;;;;;23.80;64.10;23.70;99414.00;;;;347400;28;83301;-88
2021/06/16 00:58:21;;;;;;;;;;;23.80;64.50;23.60;99424.00;;;;346779;28;96191;-88
2021/06/16 00:58:33;;;;;;;;;;;23.80;64.90;23.80;99424.00;;;;345770;28;83414;-88
2021/06/16 00:58:45;;;;;;;;;;;23.80;64.60;23.80;99429.00;;;;344670;28;96831;-88
2021/06/16 00:58:57;;;;;;;;;;;23.80;64.80;23.70;99416.00;;;;344786;28;82487;-88
2021/06/16 00:59:08;;;;;;;;;;;23.80;64.80;23.70;99423.00;;;;346158;28;97077;-89